createdAt,value
2018-07-06T00:00:59.527Z,21.20
2018-07-06T00:03:40.198Z,21.20
2018-07-06T00:06:20.625Z,21.10
2018-07-06T00:09:01.088Z,21.20
2018-07-06T00:11:41.461Z,21.20
2018-07-06T00:14:21.661Z,21.10
2018-07-06T00:17:01.980Z,21.00
2018-07-06T00:19:42.565Z,20.90
2018-07-06T00:22:22.847Z,20.80
2018-07-06T00:25:03.181Z,20.80
2018-07-06T00:27:43.504Z,20.90
2018-07-06T00:30:23.740Z,20.80
2018-07-06T00:33:04.326Z,20.90
2018-07-06T00:35:44.672Z,20.70
2018-07-06T00:38:24.986Z,20.60
2018-07-06T00:41:05.341Z,20.70
2018-07-06T00:43:45.525Z,20.60
2018-07-06T00:46:26.010Z,20.70
2018-07-06T00:49:06.230Z,20.60
2018-07-06T00:51:46.473Z,20.60
2018-07-06T00:54:26.938Z,20.70
2018-07-06T00:57:07.291Z,20.90
2018-07-06T00:59:47.502Z,20.80
2018-07-06T01:02:27.794Z,20.70
2018-07-06T01:05:08.071Z,20.70
2018-07-06T01:07:48.277Z,20.70
2018-07-06T01:10:28.746Z,20.60
2018-07-06T01:13:08.924Z,20.50
2018-07-06T01:15:49.322Z,20.60
2018-07-06T01:18:29.585Z,20.50
2018-07-06T01:21:10.026Z,20.40
2018-07-06T01:23:50.269Z,20.50
2018-07-06T01:26:30.528Z,20.30
2018-07-06T01:29:10.892Z,20.40
2018-07-06T01:31:51.170Z,20.30
2018-07-06T01:34:31.291Z,20.30
2018-07-06T01:37:11.538Z,20.20
2018-07-06T01:39:51.845Z,20.30
2018-07-06T01:42:32.390Z,20.30
2018-07-06T01:45:12.658Z,20.50
2018-07-06T01:47:52.989Z,20.60
2018-07-06T01:50:33.200Z,20.40
2018-07-06T01:53:13.507Z,20.50
2018-07-06T01:55:53.794Z,20.30
2018-07-06T01:58:33.999Z,20.20
2018-07-06T02:01:14.315Z,20.10
2018-07-06T02:03:54.536Z,20.20
2018-07-06T02:06:34.922Z,20.20
2018-07-06T02:09:15.258Z,20.10
2018-07-06T02:11:55.813Z,20.20
2018-07-06T02:14:36.118Z,20.20
2018-07-06T02:17:16.507Z,19.70
2018-07-06T02:19:56.696Z,19.60
2018-07-06T02:22:36.916Z,19.80
2018-07-06T02:25:17.199Z,19.80
2018-07-06T02:27:57.379Z,19.70
2018-07-06T02:30:37.672Z,19.60
2018-07-06T02:33:17.857Z,19.80
2018-07-06T02:35:58.129Z,19.70
2018-07-06T02:38:38.422Z,19.60
2018-07-06T02:41:18.690Z,19.80
2018-07-06T02:43:59.008Z,19.70
2018-07-06T02:46:39.438Z,19.80
2018-07-06T02:49:19.755Z,19.80
2018-07-06T02:52:00.027Z,19.90
2018-07-06T02:54:40.247Z,19.80
2018-07-06T02:57:20.445Z,19.70
2018-07-06T03:00:00.918Z,19.60
2018-07-06T03:02:41.437Z,19.60
2018-07-06T03:05:21.883Z,19.70
2018-07-06T03:08:02.094Z,19.70
2018-07-06T03:10:42.398Z,19.80
2018-07-06T03:13:22.755Z,19.80
2018-07-06T03:16:02.920Z,19.90
2018-07-06T03:18:43.084Z,20.00
2018-07-06T03:21:23.432Z,20.10
2018-07-06T03:24:03.878Z,20.10
2018-07-06T03:26:44.468Z,20.10
2018-07-06T03:29:24.712Z,20.10
2018-07-06T03:32:05.141Z,20.20
2018-07-06T03:34:45.346Z,20.20
2018-07-06T03:37:25.842Z,20.20
2018-07-06T03:40:06.348Z,20.20
2018-07-06T03:42:46.789Z,20.30
2018-07-06T03:45:27.133Z,20.00
2018-07-06T03:48:07.749Z,20.00
2018-07-06T03:50:48.480Z,20.00
2018-07-06T03:53:28.838Z,19.80
2018-07-06T03:56:10.458Z,19.60
2018-07-06T03:58:51.093Z,19.50
2018-07-06T04:01:31.495Z,19.60
2018-07-06T04:04:11.775Z,19.60
2018-07-06T04:06:52.023Z,19.60
2018-07-06T04:09:32.375Z,19.50
2018-07-06T04:12:12.749Z,19.50
2018-07-06T04:14:52.984Z,19.40
2018-07-06T04:17:33.234Z,19.50
2018-07-06T04:20:13.443Z,19.60
2018-07-06T04:22:53.919Z,19.60
2018-07-06T04:25:34.353Z,19.70
2018-07-06T04:28:14.487Z,19.80
2018-07-06T04:30:54.954Z,19.80
2018-07-06T04:33:35.376Z,19.90
2018-07-06T04:36:15.579Z,20.10
2018-07-06T04:38:55.845Z,20.10
2018-07-06T04:41:36.111Z,20.20
2018-07-06T04:44:16.349Z,20.20
2018-07-06T04:46:56.576Z,20.40
2018-07-06T04:52:11.021Z,20.60
2018-07-06T04:54:51.441Z,20.70
2018-07-06T04:57:31.720Z,20.70
2018-07-06T05:00:12.001Z,20.60
2018-07-06T05:02:52.215Z,20.60
2018-07-06T05:05:32.758Z,20.60
2018-07-06T05:08:13.144Z,20.70
2018-07-06T05:10:53.337Z,20.70
2018-07-06T05:13:33.572Z,20.70
2018-07-06T05:16:13.934Z,20.80
2018-07-06T05:18:54.076Z,20.80
2018-07-06T05:21:34.506Z,20.90
2018-07-06T05:24:14.765Z,21.00
2018-07-06T05:26:55.073Z,21.20
2018-07-06T05:29:35.335Z,21.40
2018-07-06T05:32:15.671Z,21.50
2018-07-06T05:34:56.088Z,21.50
2018-07-06T05:37:36.488Z,21.60
2018-07-06T05:40:16.744Z,21.70
2018-07-06T05:42:57.204Z,21.80
2018-07-06T05:45:37.655Z,21.90
2018-07-06T05:48:17.967Z,21.90
2018-07-06T05:50:58.433Z,22.00
2018-07-06T05:53:38.601Z,22.00
2018-07-06T05:56:18.889Z,22.10
2018-07-06T05:58:59.350Z,22.20
2018-07-06T06:01:39.860Z,22.20
2018-07-06T06:04:20.898Z,22.20
2018-07-06T06:07:01.422Z,22.30
2018-07-06T06:09:31.210Z,22.40
2018-07-06T06:12:00.884Z,22.50
2018-07-06T06:14:30.641Z,22.60
2018-07-06T06:17:00.384Z,22.60
2018-07-06T06:19:30.103Z,22.70
2018-07-06T06:21:59.716Z,22.70
2018-07-06T06:24:29.293Z,22.80
2018-07-06T06:26:59.014Z,22.70
2018-07-06T06:29:28.819Z,22.80
2018-07-06T06:31:59.306Z,23.00
2018-07-06T06:34:29.285Z,23.00
2018-07-06T06:36:59.528Z,23.10
2018-07-06T06:39:29.265Z,23.20
2018-07-06T06:41:59.005Z,20.30
2018-07-06T06:44:28.720Z,23.50
2018-07-06T06:46:59.601Z,23.50
2018-07-06T06:49:30.631Z,23.60
2018-07-06T06:52:00.797Z,23.50
2018-07-06T06:54:30.928Z,23.50
2018-07-06T06:57:00.910Z,23.50
2018-07-06T06:59:30.691Z,23.60
2018-07-06T07:02:00.466Z,23.50
2018-07-06T07:04:30.266Z,23.50
2018-07-06T07:07:00.287Z,23.60
2018-07-06T07:09:30.045Z,23.60
2018-07-06T07:11:59.975Z,23.50
2018-07-06T07:14:29.682Z,23.60
2018-07-06T07:16:59.662Z,23.50
2018-07-06T07:19:29.427Z,23.50
2018-07-06T07:21:59.982Z,23.60
2018-07-06T07:24:29.780Z,23.70
2018-07-06T07:27:01.362Z,23.80
2018-07-06T07:29:31.606Z,23.80
2018-07-06T07:32:01.208Z,23.90
2018-07-06T07:34:31.064Z,24.00
2018-07-06T07:37:00.937Z,24.30
2018-07-06T07:39:30.788Z,24.10
2018-07-06T07:42:00.664Z,24.10
2018-07-06T07:44:30.447Z,24.20
2018-07-06T07:47:00.276Z,24.20
2018-07-06T07:49:30.075Z,24.40
2018-07-06T07:53:11.993Z,24.70
2018-07-06T07:55:41.830Z,24.90
2018-07-06T07:58:11.668Z,24.70
2018-07-06T08:00:41.406Z,24.60
2018-07-06T08:03:11.075Z,24.80
2018-07-06T08:05:40.787Z,24.90
2018-07-06T08:08:10.401Z,24.90
2018-07-06T08:10:40.016Z,24.60
2018-07-06T08:13:09.738Z,24.60
2018-07-06T08:15:39.471Z,24.50
2018-07-06T08:18:09.020Z,24.80
2018-07-06T08:20:38.645Z,25.10
2018-07-06T08:23:08.258Z,25.20
2018-07-06T08:25:37.863Z,25.30
2018-07-06T08:28:07.502Z,25.10
2018-07-06T08:30:37.100Z,25.10
2018-07-06T08:33:06.775Z,25.70
2018-07-06T08:35:47.085Z,25.80
2018-07-06T08:38:16.648Z,25.90
2018-07-06T08:40:46.352Z,25.40
2018-07-06T08:43:15.963Z,25.40
2018-07-06T08:45:46.492Z,25.60
2018-07-06T08:48:16.164Z,25.90
2018-07-06T08:50:45.704Z,25.80
2018-07-06T08:53:15.269Z,25.50
2018-07-06T08:55:44.797Z,25.80
2018-07-06T08:58:14.440Z,26.00
2018-07-06T09:00:43.987Z,25.80
2018-07-06T09:03:13.599Z,26.20
2018-07-06T09:05:43.160Z,26.40
2018-07-06T09:08:12.718Z,26.60
2018-07-06T09:10:42.280Z,26.50
2018-07-06T09:13:11.941Z,26.60
2018-07-06T09:15:41.534Z,26.30
2018-07-06T09:18:11.173Z,26.70
2018-07-06T09:20:40.776Z,26.90
2018-07-06T09:23:10.357Z,26.90
2018-07-06T09:25:40.016Z,27.00
2018-07-06T09:28:09.588Z,27.20
2018-07-06T09:30:39.238Z,27.00
2018-07-06T09:33:08.876Z,27.20
2018-07-06T09:35:38.489Z,27.10
2018-07-06T09:38:08.059Z,27.00
2018-07-06T09:40:37.641Z,26.90
2018-07-06T09:43:07.352Z,27.00
2018-07-06T09:45:36.973Z,27.10
2018-07-06T09:48:06.611Z,27.20
2018-07-06T09:50:36.177Z,27.20
2018-07-06T09:53:05.775Z,27.20
2018-07-06T09:55:35.338Z,27.30
2018-07-06T09:58:05.093Z,27.20
2018-07-06T10:00:39.715Z,27.40
2018-07-06T10:03:09.406Z,27.30
2018-07-06T10:05:38.931Z,27.30
2018-07-06T10:10:38.510Z,27.70
2018-07-06T10:13:08.154Z,27.70
2018-07-06T10:15:37.767Z,27.80
2018-07-06T10:18:07.417Z,27.60
2018-07-06T10:20:37.048Z,27.20
2018-07-06T10:23:06.691Z,27.10
2018-07-06T10:25:36.338Z,27.60
2018-07-06T10:28:18.612Z,28.00
2018-07-06T10:31:05.003Z,28.00
2018-07-06T10:33:34.644Z,28.30
2018-07-06T10:36:04.235Z,28.70
2018-07-06T10:38:33.826Z,28.60
2018-07-06T10:41:03.530Z,28.90
2018-07-06T10:43:35.192Z,29.20
2018-07-06T10:46:04.751Z,29.30
2018-07-06T10:48:34.315Z,29.40
2018-07-06T10:51:03.952Z,29.30
2018-07-06T10:53:33.579Z,29.30
2018-07-06T10:56:03.235Z,29.20
2018-07-06T10:58:32.820Z,28.80
2018-07-06T11:01:02.593Z,28.70
2018-07-06T11:03:32.131Z,28.80
2018-07-06T11:06:01.676Z,29.00
2018-07-06T11:08:31.263Z,29.00
2018-07-06T11:11:00.964Z,28.80
2018-07-06T11:13:30.580Z,28.70
2018-07-06T11:16:00.287Z,28.70
2018-07-06T11:18:29.842Z,28.90
2018-07-06T11:20:59.622Z,29.00
2018-07-06T11:23:29.222Z,29.30
2018-07-06T11:25:58.886Z,29.60
2018-07-06T11:28:28.473Z,30.10
2018-07-06T11:30:58.106Z,30.10
2018-07-06T11:33:27.750Z,30.10
2018-07-06T11:35:57.304Z,30.30
2018-07-06T11:38:26.996Z,30.40
2018-07-06T11:40:56.590Z,29.90
2018-07-06T11:43:26.165Z,29.60
2018-07-06T11:45:55.818Z,29.60
2018-07-06T11:48:25.398Z,29.40
2018-07-06T11:50:54.991Z,29.60
2018-07-06T11:53:24.891Z,29.40
2018-07-06T11:55:54.564Z,29.40
2018-07-06T11:58:24.111Z,29.60
2018-07-06T12:00:53.668Z,29.80
2018-07-06T12:03:23.255Z,29.90
2018-07-06T12:05:53.133Z,29.80
2018-07-06T12:08:22.662Z,29.70
2018-07-06T12:10:52.200Z,29.60
2018-07-06T12:13:21.892Z,29.50
2018-07-06T12:15:52.186Z,29.30
2018-07-06T12:18:21.781Z,29.30
2018-07-06T12:20:51.467Z,29.20
2018-07-06T12:23:21.102Z,29.20
2018-07-06T12:25:50.672Z,29.30
2018-07-06T12:28:20.267Z,29.30
2018-07-06T12:30:49.876Z,29.10
2018-07-06T12:33:19.429Z,29.40
2018-07-06T12:35:49.094Z,29.20
2018-07-06T12:38:18.657Z,28.60
2018-07-06T12:40:48.300Z,28.40
2018-07-06T12:43:17.947Z,28.90
2018-07-06T12:45:47.591Z,29.20
2018-07-06T12:48:17.228Z,28.70
2018-07-06T12:50:46.905Z,28.80
2018-07-06T12:53:16.445Z,28.80
2018-07-06T12:55:46.077Z,29.30
2018-07-06T12:58:15.674Z,29.80
2018-07-06T13:00:45.250Z,29.80
2018-07-06T13:03:14.853Z,30.30
2018-07-06T13:05:44.431Z,30.80
2018-07-06T13:08:13.998Z,31.10
2018-07-06T13:10:43.583Z,31.20
2018-07-06T13:13:13.153Z,31.00
2018-07-06T13:15:42.696Z,30.40
2018-07-06T13:18:12.287Z,30.60
2018-07-06T13:20:41.837Z,31.10
2018-07-06T13:23:11.458Z,30.90
2018-07-06T13:25:41.048Z,31.20
2018-07-06T13:28:10.636Z,31.00
2018-07-06T13:30:40.365Z,30.70
2018-07-06T13:33:09.955Z,30.60
2018-07-06T13:35:39.488Z,30.60
2018-07-06T13:38:09.045Z,30.20
2018-07-06T13:40:38.604Z,29.90
2018-07-06T13:43:08.212Z,29.50
2018-07-06T13:45:37.829Z,29.20
2018-07-06T13:48:07.450Z,28.80
2018-07-06T13:50:37.026Z,28.60
2018-07-06T13:53:06.686Z,28.40
2018-07-06T13:55:36.254Z,28.60
2018-07-06T13:58:05.947Z,28.50
2018-07-06T14:00:35.533Z,28.90
2018-07-06T14:03:05.142Z,28.80
2018-07-06T14:05:34.869Z,28.60
2018-07-06T14:08:04.673Z,28.20
2018-07-06T14:10:34.245Z,28.40
2018-07-06T14:13:03.800Z,28.50
2018-07-06T14:15:33.391Z,28.60
2018-07-06T14:18:03.080Z,28.30
2018-07-06T14:20:32.817Z,28.60
2018-07-06T14:23:02.612Z,28.30
2018-07-06T14:25:32.213Z,28.30
2018-07-06T14:28:01.827Z,28.80
2018-07-06T14:30:31.494Z,28.60
2018-07-06T14:33:01.134Z,28.50
2018-07-06T14:35:30.746Z,28.50
2018-07-06T14:38:00.391Z,28.40
2018-07-06T14:40:30.086Z,28.70
2018-07-06T14:42:59.850Z,29.20
2018-07-06T14:45:29.765Z,28.60
2018-07-06T14:50:29.168Z,28.20
2018-07-06T14:52:58.876Z,29.00
2018-07-06T14:55:28.474Z,29.20
2018-07-06T14:57:58.036Z,29.20
2018-07-06T15:00:27.585Z,29.40
2018-07-06T15:02:57.267Z,29.40
2018-07-06T15:05:26.930Z,29.60
2018-07-06T15:07:56.584Z,29.60
2018-07-06T15:10:26.279Z,30.00
2018-07-06T15:12:55.847Z,29.50
2018-07-06T15:15:25.545Z,29.70
2018-07-06T15:17:55.267Z,29.20
2018-07-06T15:20:24.918Z,29.40
2018-07-06T15:22:54.688Z,29.30
2018-07-06T15:25:24.384Z,29.60
2018-07-06T15:27:54.173Z,29.40
2018-07-06T15:30:23.858Z,29.60
2018-07-06T15:32:53.515Z,29.40
2018-07-06T15:35:23.096Z,29.50
2018-07-06T15:37:52.745Z,30.00
2018-07-06T15:40:22.400Z,29.40
2018-07-06T15:42:52.009Z,30.00
2018-07-06T15:45:21.792Z,29.90
2018-07-06T15:47:51.691Z,30.30
2018-07-06T15:50:21.411Z,29.80
2018-07-06T15:52:51.111Z,29.50
2018-07-06T15:55:20.755Z,29.10
2018-07-06T15:57:50.413Z,28.40
2018-07-06T16:00:20.023Z,28.10
2018-07-06T16:02:49.709Z,28.00
2018-07-06T16:05:19.374Z,27.90
2018-07-06T16:07:48.981Z,27.70
2018-07-06T16:12:47.559Z,28.00
2018-07-06T16:15:18.121Z,28.00
2018-07-06T16:17:47.741Z,28.00
2018-07-06T16:20:17.301Z,28.20
2018-07-06T16:22:46.918Z,28.40
2018-07-06T16:25:16.597Z,28.40
2018-07-06T16:27:46.192Z,28.20
2018-07-06T16:30:15.833Z,28.10
2018-07-06T16:32:45.544Z,27.80
2018-07-06T16:35:15.094Z,28.00
2018-07-06T16:37:44.717Z,27.80
2018-07-06T16:40:14.366Z,27.70
2018-07-06T16:42:43.921Z,27.60
2018-07-06T16:45:13.574Z,27.80
2018-07-06T16:47:43.170Z,28.00
2018-07-06T16:50:12.726Z,27.90
2018-07-06T16:52:42.409Z,27.90
2018-07-06T16:55:12.146Z,28.00
2018-07-06T16:57:41.776Z,27.90
2018-07-06T17:00:11.445Z,28.10
2018-07-06T17:02:41.196Z,28.20
2018-07-06T17:05:10.855Z,27.80
2018-07-06T17:07:40.511Z,27.90
2018-07-06T17:10:10.119Z,27.70
2018-07-06T17:12:39.819Z,28.20
2018-07-06T17:15:09.824Z,28.80
2018-07-06T17:17:39.631Z,29.10
2018-07-06T17:20:09.314Z,28.80
2018-07-06T17:22:38.921Z,27.90
2018-07-06T17:25:08.615Z,28.20
2018-07-06T17:27:38.349Z,27.70
2018-07-06T17:30:07.920Z,28.00
2018-07-06T17:32:37.660Z,27.70
2018-07-06T17:35:07.298Z,27.90
2018-07-06T17:37:36.881Z,27.70
2018-07-06T17:40:06.528Z,27.50
2018-07-06T17:42:36.213Z,27.30
2018-07-06T17:45:05.898Z,27.40
2018-07-06T17:47:35.549Z,27.30
2018-07-06T17:50:06.386Z,27.30
2018-07-06T17:52:36.126Z,27.20
2018-07-06T17:55:05.980Z,27.20
2018-07-06T17:57:35.849Z,27.20
2018-07-06T18:00:05.868Z,27.10
2018-07-06T18:02:35.734Z,27.00
2018-07-06T18:05:05.621Z,26.90
2018-07-06T18:07:35.461Z,26.90
2018-07-06T18:10:05.248Z,27.00
2018-07-06T18:12:34.982Z,27.00
2018-07-06T18:15:04.914Z,26.90
2018-07-06T18:17:35.120Z,26.90
2018-07-06T18:20:05.070Z,26.80
2018-07-06T18:22:35.707Z,26.70
2018-07-06T18:25:05.636Z,26.50
2018-07-06T18:27:35.928Z,26.50
2018-07-06T18:30:06.090Z,26.70
2018-07-06T18:32:36.431Z,26.70
2018-07-06T18:35:06.535Z,26.50
2018-07-06T18:37:36.759Z,26.50
2018-07-06T18:40:06.875Z,26.50
2018-07-06T18:42:37.103Z,26.40
2018-07-06T18:45:06.954Z,26.40
2018-07-06T18:47:36.807Z,26.30
2018-07-06T18:50:06.647Z,26.10
2018-07-06T18:52:36.600Z,26.00
2018-07-06T18:55:07.001Z,26.00
2018-07-06T18:57:37.037Z,26.10
2018-07-06T19:00:07.243Z,26.10
2018-07-06T19:02:38.082Z,26.00
2018-07-06T19:05:08.565Z,25.90
2018-07-06T19:07:38.919Z,25.90
2018-07-06T19:10:09.332Z,25.90
2018-07-06T19:12:39.655Z,25.80
2018-07-06T19:15:09.899Z,25.80
2018-07-06T19:17:40.260Z,25.80
2018-07-06T19:20:11.130Z,25.60
2018-07-06T19:22:41.476Z,25.60
2018-07-06T19:25:11.905Z,25.60
2018-07-06T19:27:42.322Z,25.60
2018-07-06T19:30:12.904Z,25.40
2018-07-06T19:32:43.592Z,25.40
2018-07-06T19:35:14.023Z,25.20
2018-07-06T19:37:44.432Z,25.10
2018-07-06T19:40:14.844Z,25.10
2018-07-06T19:42:45.202Z,25.00
2018-07-06T19:45:15.703Z,24.90
2018-07-06T19:47:46.079Z,25.00
2018-07-06T19:50:19.683Z,25.00
2018-07-06T19:52:49.981Z,25.10
2018-07-06T19:55:20.424Z,25.10
2018-07-06T19:57:50.836Z,25.00
2018-07-06T20:00:21.113Z,25.00
2018-07-06T20:02:51.482Z,24.90
2018-07-06T20:05:21.743Z,24.70
2018-07-06T20:07:51.825Z,24.50
2018-07-06T20:10:21.999Z,24.60
2018-07-06T20:12:52.208Z,24.60
2018-07-06T20:15:22.418Z,24.50
2018-07-06T20:17:52.688Z,24.40
2018-07-06T20:20:23.130Z,24.20
2018-07-06T20:22:53.483Z,24.30
2018-07-06T20:25:23.841Z,24.30
2018-07-06T20:27:54.278Z,24.30
2018-07-06T20:30:24.700Z,24.20
2018-07-06T20:32:55.075Z,24.10
2018-07-06T20:35:25.393Z,24.10
2018-07-06T20:37:55.755Z,24.20
2018-07-06T20:40:26.003Z,24.20
2018-07-06T20:42:56.213Z,24.00
2018-07-06T20:45:26.419Z,23.90
2018-07-06T20:47:56.700Z,24.00
2018-07-06T20:50:27.023Z,24.10
2018-07-06T20:52:57.465Z,24.20
2018-07-06T20:55:27.878Z,24.20
2018-07-06T20:57:58.183Z,24.40
2018-07-06T21:00:28.234Z,24.30
2018-07-06T21:02:58.565Z,24.20
2018-07-06T21:05:28.835Z,24.30
2018-07-06T21:07:59.192Z,24.40
2018-07-06T21:12:58.364Z,24.30
2018-07-06T21:15:28.243Z,24.20
2018-07-06T21:17:58.070Z,24.10
2018-07-06T21:20:27.959Z,24.10
2018-07-06T21:22:57.719Z,24.00
2018-07-06T21:25:27.411Z,24.00
2018-07-06T21:27:57.020Z,23.90
2018-07-06T21:30:26.767Z,23.90
2018-07-06T21:32:56.379Z,24.10
2018-07-06T21:35:25.930Z,24.20
2018-07-06T21:37:55.582Z,23.90
2018-07-06T21:40:25.239Z,23.60
2018-07-06T21:42:54.950Z,23.60
2018-07-06T21:45:24.536Z,23.60
2018-07-06T21:47:54.269Z,23.50
2018-07-06T21:50:23.862Z,23.30
2018-07-06T21:52:53.487Z,23.30
2018-07-06T21:55:23.267Z,23.40
2018-07-06T22:00:42.473Z,23.50
2018-07-06T22:03:13.038Z,23.60
2018-07-06T22:05:43.252Z,23.40
2018-07-06T22:08:12.841Z,23.10
2018-07-06T22:10:42.409Z,22.90
2018-07-06T22:13:11.971Z,22.80
2018-07-06T22:15:46.488Z,22.80
2018-07-06T22:18:17.562Z,23.20
2018-07-06T22:20:48.227Z,23.30
2018-07-06T22:23:18.102Z,23.30
2018-07-06T22:25:47.795Z,23.20
2018-07-06T22:28:17.523Z,22.80
2018-07-06T22:30:47.147Z,22.80
2018-07-06T22:33:16.784Z,22.60
2018-07-06T22:38:15.352Z,22.80
2018-07-06T22:40:44.872Z,22.90
2018-07-06T22:43:14.594Z,23.00
2018-07-06T22:45:44.152Z,22.90
2018-07-06T22:48:13.743Z,22.90
2018-07-06T22:50:43.288Z,22.80
2018-07-06T22:53:12.890Z,22.80
2018-07-06T22:55:42.452Z,22.80
2018-07-06T23:00:41.190Z,22.70
2018-07-06T23:03:10.807Z,22.60
2018-07-06T23:05:40.415Z,22.80
2018-07-06T23:08:10.107Z,22.80
2018-07-06T23:10:39.665Z,22.80
2018-07-06T23:13:09.254Z,22.70
2018-07-06T23:15:38.872Z,22.80
2018-07-06T23:18:08.462Z,23.00
2018-07-06T23:20:38.011Z,23.00
2018-07-06T23:23:10.425Z,23.00
2018-07-06T23:25:48.314Z,22.90
2018-07-06T23:28:18.271Z,23.00
2018-07-06T23:30:47.853Z,22.90
2018-07-06T23:33:17.608Z,22.80
2018-07-06T23:35:47.202Z,22.70
2018-07-06T23:38:16.854Z,22.60
2018-07-06T23:40:46.463Z,22.70
2018-07-06T23:43:16.101Z,22.70
2018-07-06T23:45:45.693Z,22.80
2018-07-06T23:48:15.332Z,22.90
2018-07-06T23:50:45.057Z,22.90
2018-07-06T23:53:14.661Z,23.00
2018-07-06T23:55:44.271Z,22.80
2018-07-06T23:58:13.878Z,22.70
